Lewisville's Hourly Summary for Tuesday, July 10, 2018
Hour Temp
(f)
RH
(%)
Solar Rad.
(MJ/m2)
Rainfall
(in)
Wind
(mph)
7/10/2018 12:00 AM 78 75 0 0 3.97
7/10/2018 1:00 AM 78 80 0 0 4.03
7/10/2018 2:00 AM 78 79 0 0 3.61
7/10/2018 3:00 AM 77 78 0 0 3.32
7/10/2018 4:00 AM 77 77 0 0 3.72
7/10/2018 5:00 AM 76 79 0 0 4.15
7/10/2018 6:00 AM 75 83 0.02 0 3.69
7/10/2018 7:00 AM 76 78 0.21 0 3.07
7/10/2018 8:00 AM 79 67 0.96 0 3.52
7/10/2018 9:00 AM 82 61 1.61 0 4.33
7/10/2018 10:00 AM 85 52 2.38 0 3.17
7/10/2018 11:00 AM 88 51 2.57 0 3.74
7/10/2018 12:00 PM 89 48 1.97 0 3.54
7/10/2018 1:00 PM 91 42 2.71 0 4.38
7/10/2018 2:00 PM 90 40 1.08 0 5.06
7/10/2018 3:00 PM 81 63 0.27 0 6.96
7/10/2018 4:00 PM 80 64 0.2 0 5.57
7/10/2018 5:00 PM 80 63 0.32 0 2.86
7/10/2018 6:00 PM 82 60 0.41 0 3.57
7/10/2018 7:00 PM 83 61 0.16 0 2.61
7/10/2018 8:00 PM 81 63 0.02 0 0.98
7/10/2018 9:00 PM 81 68 0 0 2.78
7/10/2018 10:00 PM 80 73 0 0 0.77
7/10/2018 11:00 PM 78 78 0 0 0.2
Data Summary 81 65 14.89 0.00 3.48